createdAt,value
2022-09-09T00:02:05.521Z,100.00
2022-09-09T00:04:34.845Z,100.00
2022-09-09T00:07:17.187Z,100.00
2022-09-09T00:09:54.626Z,100.00
2022-09-09T00:12:34.935Z,100.00
2022-09-09T00:15:13.781Z,100.00
2022-09-09T00:18:10.331Z,100.00
2022-09-09T00:20:44.927Z,100.00
2022-09-09T00:23:25.871Z,100.00
2022-09-09T00:26:21.394Z,100.00
2022-09-09T00:29:13.283Z,100.00
2022-09-09T00:31:40.595Z,100.00
2022-09-09T00:34:17.350Z,100.00
2022-09-09T00:36:47.228Z,100.00
2022-09-09T00:39:36.199Z,100.00
2022-09-09T00:42:26.348Z,100.00
2022-09-09T00:45:18.354Z,100.00
2022-09-09T00:47:51.449Z,100.00
2022-09-09T00:50:36.475Z,100.00
2022-09-09T00:53:22.264Z,100.00
2022-09-09T00:55:49.870Z,100.00
2022-09-09T00:58:16.868Z,100.00
2022-09-09T01:01:03.751Z,100.00
2022-09-09T01:03:46.535Z,100.00
2022-09-09T01:06:16.025Z,100.00
2022-09-09T01:09:11.663Z,100.00
2022-09-09T01:11:51.107Z,100.00
2022-09-09T01:14:36.540Z,100.00
2022-09-09T01:17:32.272Z,100.00
2022-09-09T01:20:18.687Z,100.00
2022-09-09T01:22:57.056Z,100.00
2022-09-09T01:25:45.102Z,100.00
2022-09-09T01:28:17.450Z,100.00
2022-09-09T01:30:44.550Z,100.00
2022-09-09T01:33:17.220Z,100.00
2022-09-09T01:35:47.087Z,100.00
2022-09-09T01:38:15.033Z,100.00
2022-09-09T01:40:42.096Z,100.00
2022-09-09T01:43:09.436Z,100.00
2022-09-09T01:45:37.135Z,100.00
2022-09-09T01:48:04.322Z,100.00
2022-09-09T01:50:31.437Z,100.00
2022-09-09T01:52:59.978Z,100.00
2022-09-09T01:55:33.664Z,100.00
2022-09-09T01:58:07.542Z,100.00
2022-09-09T02:00:38.669Z,100.00
2022-09-09T02:03:13.071Z,100.00
2022-09-09T02:05:42.576Z,100.00
2022-09-09T02:08:16.842Z,100.00
2022-09-09T02:10:56.632Z,100.00
2022-09-09T02:13:23.974Z,100.00
2022-09-09T02:15:59.390Z,100.00
2022-09-09T02:18:28.124Z,100.00
2022-09-09T02:20:55.202Z,100.00
2022-09-09T02:23:22.386Z,100.00
2022-09-09T02:25:52.541Z,100.00
2022-09-09T02:28:22.236Z,100.00
2022-09-09T02:30:56.132Z,100.00
2022-09-09T02:33:29.770Z,100.00
2022-09-09T02:36:02.698Z,100.00
2022-09-09T02:38:31.621Z,100.00
2022-09-09T02:40:59.610Z,100.00
2022-09-09T02:43:26.684Z,100.00
2022-09-09T02:46:22.073Z,100.00
2022-09-09T02:49:05.751Z,100.00
2022-09-09T02:52:03.293Z,100.00
2022-09-09T02:54:37.130Z,100.00
2022-09-09T02:57:10.031Z,100.00
2022-09-09T02:59:37.501Z,100.00
2022-09-09T03:02:05.008Z,100.00
2022-09-09T03:04:32.141Z,100.00
2022-09-09T03:06:59.665Z,100.00
2022-09-09T03:09:29.249Z,100.00
2022-09-09T03:11:56.397Z,100.00
2022-09-09T03:14:25.983Z,100.00
2022-09-09T03:16:54.018Z,100.00
2022-09-09T03:19:22.001Z,100.00
2022-09-09T03:21:49.123Z,100.00
2022-09-09T03:24:16.164Z,100.00
2022-09-09T03:26:46.880Z,100.00
2022-09-09T03:29:13.981Z,100.00
2022-09-09T03:31:41.650Z,100.00
2022-09-09T03:34:08.820Z,100.00
2022-09-09T03:36:36.145Z,100.00
2022-09-09T03:39:04.173Z,100.00
2022-09-09T03:41:31.724Z,100.00
2022-09-09T03:43:58.808Z,100.00
2022-09-09T03:46:26.903Z,100.00
2022-09-09T03:48:53.999Z,100.00
2022-09-09T03:51:21.115Z,100.00
2022-09-09T03:53:48.632Z,100.00
2022-09-09T03:56:16.309Z,100.00
2022-09-09T03:58:43.912Z,100.00
2022-09-09T04:01:15.541Z,100.00
2022-09-09T04:03:43.295Z,100.00
2022-09-09T04:06:12.811Z,100.00
2022-09-09T04:08:40.314Z,100.00
2022-09-09T04:11:07.810Z,100.00
2022-09-09T04:13:36.068Z,100.00
2022-09-09T04:16:04.739Z,100.00
2022-09-09T04:18:32.238Z,100.00
2022-09-09T04:20:59.726Z,100.00
2022-09-09T04:23:29.977Z,100.00
2022-09-09T04:25:58.619Z,100.00
2022-09-09T04:28:27.881Z,100.00
2022-09-09T04:30:55.124Z,100.00
2022-09-09T04:33:22.495Z,100.00
2022-09-09T04:35:50.642Z,100.00
2022-09-09T04:38:18.533Z,100.00
2022-09-09T04:40:47.728Z,100.00
2022-09-09T04:43:17.880Z,100.00
2022-09-09T04:45:45.005Z,100.00
2022-09-09T04:48:12.108Z,100.00
2022-09-09T04:50:39.197Z,100.00
2022-09-09T04:53:06.456Z,100.00
2022-09-09T04:55:35.813Z,100.00
2022-09-09T04:58:08.277Z,100.00
2022-09-09T05:00:36.795Z,100.00
2022-09-09T05:03:07.318Z,100.00
2022-09-09T05:05:37.342Z,100.00
2022-09-09T05:08:05.991Z,100.00
2022-09-09T05:10:34.195Z,100.00
2022-09-09T05:13:01.277Z,100.00
2022-09-09T05:15:28.412Z,100.00
2022-09-09T05:18:01.993Z,100.00
2022-09-09T05:20:29.400Z,100.00
2022-09-09T05:22:57.560Z,100.00
2022-09-09T05:25:28.169Z,100.00
2022-09-09T05:27:55.355Z,100.00
2022-09-09T05:30:23.684Z,100.00
2022-09-09T05:32:51.099Z,100.00
2022-09-09T05:35:20.072Z,100.00
2022-09-09T05:37:47.247Z,100.00
2022-09-09T05:40:14.590Z,100.00
2022-09-09T05:42:42.427Z,100.00
2022-09-09T05:45:10.148Z,100.00
2022-09-09T05:47:38.207Z,100.00
2022-09-09T05:50:05.868Z,100.00
2022-09-09T05:52:33.615Z,100.00
2022-09-09T05:55:00.743Z,100.00
2022-09-09T05:57:27.852Z,100.00
2022-09-09T05:59:54.935Z,100.00
2022-09-09T06:02:22.091Z,100.00
2022-09-09T06:04:49.310Z,100.00
2022-09-09T06:07:16.379Z,100.00
2022-09-09T06:09:43.764Z,100.00
2022-09-09T06:12:10.855Z,100.00
2022-09-09T06:14:37.958Z,100.00
2022-09-09T06:17:05.079Z,100.00
2022-09-09T06:19:32.184Z,100.00
2022-09-09T06:21:59.739Z,100.00
2022-09-09T06:24:26.852Z,100.00
2022-09-09T06:26:55.027Z,100.00
2022-09-09T06:29:22.116Z,100.00
2022-09-09T06:31:49.297Z,100.00
2022-09-09T06:34:16.421Z,100.00
2022-09-09T06:36:43.683Z,100.00
2022-09-09T06:39:14.770Z,100.00
2022-09-09T06:41:43.532Z,100.00
2022-09-09T06:44:12.742Z,100.00
2022-09-09T06:46:40.684Z,100.00
2022-09-09T06:49:09.816Z,100.00
2022-09-09T06:51:43.392Z,100.00
2022-09-09T06:54:11.527Z,100.00
2022-09-09T06:56:43.952Z,100.00
2022-09-09T06:59:11.776Z,100.00
2022-09-09T07:01:44.846Z,100.00
2022-09-09T07:04:12.328Z,100.00
2022-09-09T07:06:41.396Z,100.00
2022-09-09T07:09:10.686Z,100.00
2022-09-09T07:11:49.669Z,100.00
2022-09-09T07:14:17.782Z,100.00
2022-09-09T07:16:45.886Z,100.00
2022-09-09T07:19:13.646Z,100.00
2022-09-09T07:21:41.332Z,100.00
2022-09-09T07:24:10.997Z,99.92
2022-09-09T07:26:39.533Z,100.00
2022-09-09T07:29:06.830Z,99.22
2022-09-09T07:31:37.347Z,98.76
2022-09-09T07:34:05.245Z,98.42
2022-09-09T07:36:38.827Z,98.42
2022-09-09T07:39:08.500Z,97.40
2022-09-09T07:41:39.007Z,97.10
2022-09-09T07:44:07.841Z,95.89
2022-09-09T07:46:35.794Z,95.21
2022-09-09T07:49:04.558Z,95.08
2022-09-09T07:51:37.002Z,94.22
2022-09-09T07:54:06.578Z,93.66
2022-09-09T07:56:34.128Z,92.58
2022-09-09T07:59:02.033Z,93.33
2022-09-09T08:01:40.066Z,92.79
2022-09-09T08:04:16.512Z,92.78
2022-09-09T08:06:45.637Z,92.22
2022-09-09T08:09:13.450Z,91.58
2022-09-09T08:11:41.631Z,90.98
2022-09-09T08:14:09.711Z,91.22
2022-09-09T08:16:39.483Z,89.77
2022-09-09T08:19:08.226Z,89.62
2022-09-09T08:21:37.663Z,89.77
2022-09-09T08:24:06.037Z,90.77
2022-09-09T08:26:47.346Z,89.52
2022-09-09T08:29:17.404Z,88.56
2022-09-09T08:31:45.955Z,89.04
2022-09-09T08:34:13.281Z,88.78
2022-09-09T08:36:43.489Z,89.45
2022-09-09T08:39:12.544Z,88.96
2022-09-09T08:41:52.324Z,88.58
2022-09-09T08:44:28.421Z,88.40
2022-09-09T08:47:16.370Z,87.92
2022-09-09T08:50:14.043Z,88.54
2022-09-09T08:52:53.764Z,88.14
2022-09-09T08:55:42.769Z,88.18
2022-09-09T08:58:16.101Z,87.84
2022-09-09T09:01:14.156Z,88.09
2022-09-09T09:03:56.246Z,87.24
2022-09-09T09:06:32.019Z,86.89
2022-09-09T09:09:06.501Z,87.18
2022-09-09T09:11:42.816Z,85.90
2022-09-09T09:14:24.286Z,84.78
2022-09-09T09:17:16.814Z,85.62
2022-09-09T09:19:44.213Z,85.19
2022-09-09T09:22:30.202Z,84.74
2022-09-09T09:25:21.275Z,83.29
2022-09-09T09:28:07.152Z,83.17
2022-09-09T09:30:41.168Z,83.26
2022-09-09T09:33:51.066Z,80.02
2022-09-09T09:36:18.167Z,82.66
2022-09-09T09:41:44.446Z,81.45
2022-09-09T09:44:31.952Z,81.16
2022-09-09T09:47:09.281Z,81.77
2022-09-09T09:49:36.560Z,81.60
2022-09-09T09:52:05.008Z,79.00
2022-09-09T09:54:39.259Z,79.22
2022-09-09T09:57:13.943Z,79.51
2022-09-09T09:59:41.291Z,79.49
2022-09-09T10:02:18.785Z,79.07
2022-09-09T10:04:48.959Z,79.42
2022-09-09T10:07:21.430Z,77.34
2022-09-09T10:09:56.329Z,76.34
2022-09-09T10:12:31.988Z,76.06
2022-09-09T10:15:23.671Z,75.73
2022-09-09T10:18:05.334Z,76.91
2022-09-09T10:20:45.412Z,77.67
2022-09-09T10:23:41.379Z,76.31
2022-09-09T10:26:33.229Z,75.86
2022-09-09T10:29:28.194Z,73.99
2022-09-09T10:32:04.115Z,73.98
2022-09-09T10:35:03.919Z,74.99
2022-09-09T10:37:33.990Z,72.98
2022-09-09T10:40:27.117Z,73.45
2022-09-09T10:42:59.447Z,72.81
2022-09-09T10:45:41.852Z,71.63
2022-09-09T10:48:29.964Z,72.46
2022-09-09T10:51:22.658Z,72.06
2022-09-09T10:54:02.464Z,71.19
2022-09-09T10:56:30.188Z,71.05
2022-09-09T10:59:01.970Z,72.31
2022-09-09T11:01:41.147Z,71.50
2022-09-09T11:04:17.726Z,70.81
2022-09-09T11:06:49.246Z,69.96
2022-09-09T11:09:24.348Z,69.24
2022-09-09T11:11:59.264Z,69.08
2022-09-09T11:14:41.207Z,66.74
2022-09-09T11:17:13.768Z,65.79
2022-09-09T11:19:42.376Z,67.70
2022-09-09T11:22:22.992Z,66.56
2022-09-09T11:24:57.962Z,66.75
2022-09-09T11:27:32.857Z,66.49
2022-09-09T11:30:44.208Z,65.61
2022-09-09T11:33:25.684Z,65.42
2022-09-09T11:36:09.627Z,65.44
2022-09-09T11:38:53.247Z,66.37
2022-09-09T11:41:22.022Z,66.02
2022-09-09T11:43:53.046Z,67.52
2022-09-09T11:46:22.757Z,67.98
2022-09-09T11:49:01.997Z,66.82
2022-09-09T11:51:31.485Z,66.18
2022-09-09T11:54:02.194Z,65.27
2022-09-09T11:56:45.604Z,63.79
2022-09-09T11:59:24.390Z,62.65
2022-09-09T12:01:57.963Z,63.19
2022-09-09T12:04:25.548Z,60.75
2022-09-09T12:07:06.884Z,61.08
2022-09-09T12:09:45.704Z,59.98
2022-09-09T12:12:12.644Z,58.85
2022-09-09T12:14:42.692Z,56.99
2022-09-09T12:17:15.535Z,56.48
2022-09-09T12:19:43.132Z,55.81
2022-09-09T12:22:28.961Z,55.93
2022-09-09T12:25:23.632Z,54.24
2022-09-09T12:28:14.215Z,54.92
2022-09-09T12:30:54.274Z,53.52
2022-09-09T12:33:22.808Z,52.49
2022-09-09T12:35:55.881Z,53.02
2022-09-09T12:38:34.099Z,54.21
2022-09-09T12:41:01.454Z,53.59
2022-09-09T12:43:29.458Z,52.83
2022-09-09T12:46:01.669Z,52.59
2022-09-09T12:48:33.932Z,51.43
2022-09-09T12:51:01.382Z,52.08
2022-09-09T12:53:33.078Z,54.10
2022-09-09T12:56:11.151Z,53.52
2022-09-09T12:58:39.377Z,53.55
2022-09-09T13:01:07.280Z,54.08
2022-09-09T13:03:43.884Z,53.30
2022-09-09T13:06:13.458Z,55.51
2022-09-09T13:08:40.918Z,54.23
2022-09-09T13:11:11.612Z,53.78
2022-09-09T13:13:42.844Z,53.53
2022-09-09T13:16:24.043Z,53.48
2022-09-09T13:18:51.796Z,55.28
2022-09-09T13:21:19.781Z,55.22
2022-09-09T13:23:51.635Z,54.38
2022-09-09T13:26:26.759Z,54.58
2022-09-09T13:28:55.096Z,54.01
2022-09-09T13:31:33.637Z,54.54
2022-09-09T13:34:15.341Z,54.80
2022-09-09T13:36:42.485Z,55.22
2022-09-09T13:39:19.874Z,54.30
2022-09-09T13:41:47.748Z,54.63
2022-09-09T13:44:29.875Z,54.89
2022-09-09T13:47:02.827Z,54.39
2022-09-09T13:49:34.448Z,50.84
2022-09-09T13:52:12.910Z,50.90
2022-09-09T13:54:40.641Z,49.90
2022-09-09T13:57:21.958Z,48.92
2022-09-09T14:00:05.738Z,48.35
2022-09-09T14:02:34.714Z,47.03
2022-09-09T14:05:02.021Z,49.08
2022-09-09T14:07:29.920Z,48.09
2022-09-09T14:09:57.197Z,48.25
2022-09-09T14:12:25.015Z,48.73
2022-09-09T14:14:52.419Z,47.31
2022-09-09T14:17:19.506Z,48.10
2022-09-09T14:19:46.916Z,48.62
2022-09-09T14:22:14.167Z,48.86
2022-09-09T14:24:41.870Z,47.51
2022-09-09T14:27:09.636Z,47.28
2022-09-09T14:29:36.716Z,46.18
2022-09-09T14:32:03.961Z,45.29
2022-09-09T14:34:33.275Z,46.10
2022-09-09T14:37:00.400Z,44.42
2022-09-09T14:39:27.698Z,45.98
2022-09-09T14:41:54.772Z,42.95
2022-09-09T14:44:22.815Z,44.88
2022-09-09T14:46:52.757Z,43.60
2022-09-09T14:49:19.868Z,44.97
2022-09-09T14:51:46.970Z,46.35
2022-09-09T14:54:14.716Z,45.18
2022-09-09T14:56:41.856Z,46.12
2022-09-09T14:59:09.004Z,47.07
2022-09-09T15:01:36.318Z,46.55
2022-09-09T15:04:05.481Z,49.38
2022-09-09T15:06:34.703Z,49.49
2022-09-09T15:09:02.229Z,50.50
2022-09-09T15:11:35.427Z,48.26
2022-09-09T15:14:02.473Z,49.09
2022-09-09T15:16:29.804Z,49.79
2022-09-09T15:18:58.581Z,50.88
2022-09-09T15:21:28.562Z,48.61
2022-09-09T15:23:56.473Z,46.80
2022-09-09T15:26:24.041Z,44.26
2022-09-09T15:28:51.772Z,41.90
2022-09-09T15:31:22.211Z,38.30
2022-09-09T15:33:50.663Z,40.00
2022-09-09T15:36:25.155Z,39.44
2022-09-09T15:38:53.215Z,40.17
2022-09-09T15:41:22.055Z,41.29
2022-09-09T15:43:51.374Z,40.36
2022-09-09T15:46:18.473Z,40.33
2022-09-09T15:48:47.407Z,42.08
2022-09-09T15:51:38.056Z,41.25
2022-09-09T15:54:03.137Z,40.33
2022-09-09T15:56:31.450Z,41.64
2022-09-09T15:58:58.565Z,41.59
2022-09-09T16:01:26.888Z,42.20
2022-09-09T16:03:54.413Z,42.16
2022-09-09T16:06:23.379Z,41.93
2022-09-09T16:08:52.688Z,42.85
2022-09-09T16:11:25.389Z,42.81
2022-09-09T16:13:53.574Z,43.87
2022-09-09T16:16:23.188Z,43.86
2022-09-09T16:18:52.914Z,44.26
2022-09-09T16:21:28.064Z,44.19
2022-09-09T16:23:55.237Z,43.97
2022-09-09T16:26:23.335Z,44.88
2022-09-09T16:28:50.611Z,44.38
2022-09-09T16:31:20.724Z,46.11
2022-09-09T16:33:48.639Z,45.77
2022-09-09T16:36:21.037Z,46.06
2022-09-09T16:38:48.397Z,45.45
2022-09-09T16:41:15.713Z,45.36
2022-09-09T16:43:42.932Z,45.89
2022-09-09T16:46:20.423Z,47.45
2022-09-09T16:48:48.510Z,47.72
2022-09-09T16:51:24.928Z,47.72
2022-09-09T16:53:53.221Z,47.88
2022-09-09T16:56:26.233Z,48.29
2022-09-09T16:58:58.565Z,48.89
2022-09-09T17:01:27.234Z,49.66
2022-09-09T17:04:01.083Z,49.39
2022-09-09T17:06:30.147Z,50.38
2022-09-09T17:08:58.691Z,51.05
2022-09-09T17:11:26.260Z,51.33
2022-09-09T17:13:53.835Z,52.03
2022-09-09T17:16:22.901Z,52.42
2022-09-09T17:18:51.767Z,53.37
2022-09-09T17:21:23.135Z,54.40
2022-09-09T17:23:50.735Z,54.88
2022-09-09T17:26:20.019Z,55.50
2022-09-09T17:28:47.182Z,56.04
2022-09-09T17:31:17.560Z,55.82
2022-09-09T17:33:47.369Z,55.79
2022-09-09T17:36:17.274Z,55.89
2022-09-09T17:38:52.601Z,56.61
2022-09-09T17:41:27.879Z,56.23
2022-09-09T17:44:00.398Z,56.56
2022-09-09T17:46:38.343Z,56.37
2022-09-09T17:49:17.299Z,56.48
2022-09-09T17:51:48.191Z,55.59
2022-09-09T17:54:22.498Z,54.66
2022-09-09T17:56:55.683Z,54.73
2022-09-09T17:59:27.031Z,54.58
2022-09-09T18:01:59.791Z,54.53
2022-09-09T18:04:38.429Z,54.14
2022-09-09T18:07:09.548Z,54.86
2022-09-09T18:09:57.515Z,54.61
2022-09-09T18:12:25.998Z,54.86
2022-09-09T18:14:57.166Z,54.93
2022-09-09T18:17:30.871Z,55.28
2022-09-09T18:20:01.179Z,55.82
2022-09-09T18:22:32.107Z,56.04
2022-09-09T18:25:07.653Z,55.86
2022-09-09T18:27:46.273Z,56.14
2022-09-09T18:30:14.857Z,56.74
2022-09-09T18:32:48.456Z,57.10
2022-09-09T18:35:21.442Z,57.32
2022-09-09T18:38:01.715Z,57.98
2022-09-09T18:40:38.180Z,58.51
2022-09-09T18:43:16.293Z,59.02
2022-09-09T18:45:46.726Z,60.63
2022-09-09T18:48:18.723Z,61.54
2022-09-09T18:51:00.680Z,62.38
2022-09-09T18:53:34.281Z,62.19
2022-09-09T18:56:10.243Z,63.93
2022-09-09T18:58:45.478Z,66.17
2022-09-09T19:01:18.857Z,65.36
2022-09-09T19:03:49.818Z,66.79
2022-09-09T19:06:23.921Z,67.32
2022-09-09T19:09:03.827Z,67.06
2022-09-09T19:11:39.628Z,66.24
2022-09-09T19:14:21.230Z,66.33
2022-09-09T19:16:59.204Z,66.10
2022-09-09T19:19:33.339Z,66.62
2022-09-09T19:22:02.023Z,66.32
2022-09-09T19:24:35.214Z,66.16
2022-09-09T19:27:13.257Z,66.27
2022-09-09T19:29:48.541Z,66.48
2022-09-09T19:35:12.151Z,66.16
2022-09-09T19:37:51.183Z,65.65
2022-09-09T19:40:22.937Z,65.97
2022-09-09T19:42:54.873Z,66.26
2022-09-09T19:45:26.148Z,66.99
2022-09-09T19:48:03.107Z,67.07
2022-09-09T19:50:38.995Z,67.17
2022-09-09T19:53:12.995Z,67.92
2022-09-09T19:55:51.720Z,67.75
2022-09-09T19:58:25.395Z,68.03
2022-09-09T20:01:00.114Z,67.61
2022-09-09T20:03:33.935Z,69.32
2022-09-09T20:06:08.782Z,68.52
2022-09-09T20:08:42.467Z,68.34
2022-09-09T20:11:11.704Z,67.98
2022-09-09T20:13:47.541Z,68.26
2022-09-09T20:16:19.944Z,68.90
2022-09-09T20:19:07.315Z,68.81
2022-09-09T20:21:47.733Z,68.33
2022-09-09T20:24:24.573Z,68.82
2022-09-09T20:27:02.069Z,68.93
2022-09-09T20:29:33.829Z,69.26
2022-09-09T20:32:18.669Z,69.59
2022-09-09T20:34:51.167Z,69.58
2022-09-09T20:37:40.334Z,70.04
2022-09-09T20:40:19.232Z,69.91
2022-09-09T20:42:58.163Z,69.98
2022-09-09T20:45:31.867Z,70.87
2022-09-09T20:48:00.498Z,70.46
2022-09-09T20:50:46.667Z,70.84
2022-09-09T20:53:26.519Z,70.78
2022-09-09T20:56:01.554Z,71.10
2022-09-09T20:58:40.986Z,71.45
2022-09-09T21:01:17.061Z,71.53
2022-09-09T21:03:49.707Z,72.53
2022-09-09T21:06:23.502Z,71.39
2022-09-09T21:09:04.380Z,71.49
2022-09-09T21:11:33.506Z,72.12
2022-09-09T21:14:07.927Z,71.42
2022-09-09T21:16:37.520Z,70.83
2022-09-09T21:19:07.323Z,71.91
2022-09-09T21:21:36.929Z,72.34
2022-09-09T21:24:08.282Z,72.64
2022-09-09T21:26:45.477Z,72.24
2022-09-09T21:29:13.557Z,72.90
2022-09-09T21:31:44.015Z,72.56
2022-09-09T21:34:15.291Z,73.14
2022-09-09T21:36:42.361Z,72.28
2022-09-09T21:39:09.507Z,72.61
2022-09-09T21:41:36.939Z,73.70
2022-09-09T21:44:04.147Z,72.49
2022-09-09T21:46:31.522Z,73.88
2022-09-09T21:48:58.867Z,73.27
2022-09-09T21:51:25.984Z,73.50
2022-09-09T21:53:56.106Z,75.07
2022-09-09T21:56:23.595Z,75.35
2022-09-09T21:58:55.822Z,75.70
2022-09-09T22:01:24.893Z,75.80
2022-09-09T22:03:52.212Z,76.00
2022-09-09T22:06:19.486Z,76.71
2022-09-09T22:08:46.748Z,76.87
2022-09-09T22:11:19.431Z,77.52
2022-09-09T22:13:46.529Z,76.49
2022-09-09T22:16:16.658Z,77.36
2022-09-09T22:18:44.091Z,76.89
2022-09-09T22:21:17.065Z,77.96
2022-09-09T22:23:46.760Z,77.94
2022-09-09T22:26:15.219Z,78.22
2022-09-09T22:28:42.307Z,79.32
2022-09-09T22:31:09.461Z,79.71
2022-09-09T22:33:37.359Z,78.66
2022-09-09T22:36:05.055Z,79.63
2022-09-09T22:38:36.293Z,78.33
2022-09-09T22:41:04.382Z,78.80
2022-09-09T22:43:35.036Z,78.90
2022-09-09T22:46:03.114Z,79.30
2022-09-09T22:48:33.876Z,79.04
2022-09-09T22:51:08.588Z,77.88
2022-09-09T22:53:36.124Z,78.92
2022-09-09T22:56:07.063Z,78.67
2022-09-09T22:58:36.534Z,78.92
2022-09-09T23:01:30.478Z,79.08
2022-09-09T23:04:02.709Z,78.62
2022-09-09T23:06:30.160Z,80.95
2022-09-09T23:09:01.860Z,82.15
2022-09-09T23:11:32.295Z,80.94
2022-09-09T23:14:01.539Z,79.86
2022-09-09T23:16:29.768Z,79.72
2022-09-09T23:18:56.888Z,81.16
2022-09-09T23:21:26.192Z,81.62
2022-09-09T23:23:54.203Z,81.29
2022-09-09T23:26:22.163Z,81.83
2022-09-09T23:28:51.784Z,81.64
2022-09-09T23:31:22.631Z,81.85
2022-09-09T23:33:49.814Z,83.56
2022-09-09T23:36:19.169Z,82.57
2022-09-09T23:38:47.437Z,82.46
2022-09-09T23:41:20.935Z,82.69
2022-09-09T23:43:48.992Z,82.25
2022-09-09T23:46:19.446Z,83.80
2022-09-09T23:48:51.521Z,83.32
2022-09-09T23:51:23.597Z,83.52
2022-09-09T23:53:56.789Z,83.52
2022-09-09T23:56:26.315Z,83.52
2022-09-09T23:58:53.595Z,84.82
